Hydro-Met Data Report Part 1
Issued by NWS Binghamton, NY

Home | Current Version | Previous Version | Text Only | Print | Product List | Glossary On
Versions: 1 2 3 4 5 6 7 8 9 10 11 12 13 14 15 16 17 18 19 20 21 22 23 24 25 26 27 28 29 30 31 32 33 34 35 36 37 38 39 40 41 42 43 44 45 46 47 48 49 50
000
SRUS51 KBGM 021542
RR1BGM

HYDROMETEOROLOGICAL DATA REPORT
NATIONAL WEATHER SERVICE BINGHAMTON NY

.A GNVN6 20150601 E DH0800 /HPIRZ 446.25 : GENEVA BCD
.A GNVN6 20150601 E DH0800 /PP 0.33 : GENEVA PRECIP
.A ICYN6 20150601 E DH0800 /HPIRZ 382.80 : ITHACA TERMINAL NGVD29
.A SCBN6 20150601 E DH0800 /QRIRZ 0.378 : LOCK CS-1 CAYUGA (MUD LOCK) DISCHARGE KCFS. (CFS = 378.190)
.A CAYN6 20150601 E DH0800 /HPIRZ 383.65 : LOCK CS-1 CAYUGA (MUD LOCK) UPPER GAGE EL. BCD
.A CAYN6 20150601 E DH0800 /PP 0.62 : LOCK CS-1 CAYUGA (MUD LOCK) PRECIP.
.A CLYN6 20150601 E DH0800 /HPIRZ 385.42 : LOCK E-26 CLYDE UPPER BCD 386.50
.A CYBN6 20150601 E DH0800 /HPIRZ 380.92 : LOCK E-26 CLYDE LOWER BCD 382.00
.A CLYN6 20150601 E DH0800 /QUIRZ 1.348 : CLYDE LOCK E-26 DISCHARGE KCFS. (CFS = 1348.38)
.A MAYN6 20150601 E DH0800 /HPIRZ 381.95 : MAYS POINT LOCK E-25 UPPER BCD 381.95
.A MAZN6 20150601 E DH0800 /HPIRZ 375.00 : MAYS POINT LOCK E-25 LOWER BCD 375.00
.A MAYN6 20150601 E DH0800 /PP 0.00 : MAYS POINT PRECIP 0.00
.A OWSN6 20150601 E DH0800 /QUIRZ 0.309 : OWASCO LAKE DISCHARGE KCFS. (CFS = 309.00)
.A CRXN6 20150601 E DH0800 /HPIRZ 374.24 : CROSS LAKE BCD 375.29
.A CRXN6 20150601 E DH0800 /PP M : CROSS LAKE PRECIP M
.A BAAN6 20150601 E DH0800 /HPIRZ 373.22 :BALDWINSVILLE  E-24 UP BCD 374.30
.A BAXN6 20150601 E DH0800 /HPIRZ 363.57 :BALDWINSVILLE  E-24 LO BCD 364.65
.A BALN6 20150601 E DH0800 /HPIRZ M :BALDWINSVILLE USGS M FT
.A BALN6 20150601 E DH0800 /QUIRZ 2.53 :BALDWINSVILLE USGS DISCHARGE KCFS. (CFS = 2530.00)
.A BALN6 20150601 E DH0800 /PP 0.89 : BALWINSVILLE LOCK E-24 PRECIP 0.89
.A ONLN6 20150601 E DH0800 /HPIRZ 362.64 : ONONDAGA LAKE BCD 363.65
.A CLEN6 20150601 E DH0800 /HPIRZ 369.90 : CLEVELAND BCD 371.43
.A CLEN6 20150601 E DH0800 /PP M : CLEVELAND PRECIP #N/A
.A CAUN6 20150601 E DH0800 /HPIRZ 370.14 : BREWERTON LOCK E-23 UPPER BCD 371.20
.A BWTN6 20150601 E DH0800 /HPIRZ 363.24 : BREWERTON LOCK E-23 LOWER BCD 364.30
.A BWTN6 20150601 E DH0800 /QRIRZ 3.890 : BREWERTON LOCK E-23 DISCHARGE KCFS. (CFS = 3890.00 )
.A BWTN6 20150601 E DH0800 /HPIRP 363.32 : BREWERTON USGS 363.32
.A BWTN6 20150601 E DH0800 /SF 0.00 : BREWERTON SNOWFALL 0.00
.A BWTN6 20150601 E DH0800 /PP 1.00 : BREWERTON PRECIP 1.00
.A PXAN6 20150601 E DH0800 /HPIRZ 362.85 : PHOENIX LOCK O-1 UPPER BCD 363.90
.A PXBN6 20150601 E DH0800 /HPIRZ 354.55 : PHOENIX LOCK O-1 LOWER BCD 355.60
.A PXAN6 20150601 E DH0800 /QUIRZ 8.472 : PHOENIX LOCK O-1 DISCHARGE KCFS. (CFS = 8472.00 )



USA.gov is the U.S. government's official web portal to all federal, state and local government web resources and services.